sensor_id;sensor_type;location;lat;lon;timestamp;P1;durP1;ratioP1;P2;durP2;ratioP2
70850;SDS011;58475;49.662;9.636;2023-08-06T00:00:46;5.32;;;2.50;;
70850;SDS011;58475;49.662;9.636;2023-08-06T00:03:11;4.70;;;2.60;;
70850;SDS011;58475;49.662;9.636;2023-08-06T00:05:36;5.97;;;2.80;;
70850;SDS011;58475;49.662;9.636;2023-08-06T00:08:02;5.63;;;2.70;;
70850;SDS011;58475;49.662;9.636;2023-08-06T00:10:27;7.47;;;2.60;;
70850;SDS011;58475;49.662;9.636;2023-08-06T00:12:53;5.22;;;2.65;;
70850;SDS011;58475;49.662;9.636;2023-08-06T00:15:18;5.45;;;2.63;;
70850;SDS011;58475;49.662;9.636;2023-08-06T00:17:44;6.45;;;2.70;;
70850;SDS011;58475;49.662;9.636;2023-08-06T00:20:09;7.82;;;2.92;;
70850;SDS011;58475;49.662;9.636;2023-08-06T00:22:35;7.70;;;2.60;;
70850;SDS011;58475;49.662;9.636;2023-08-06T00:25:02;5.53;;;2.65;;
70850;SDS011;58475;49.662;9.636;2023-08-06T00:27:29;6.20;;;2.72;;
70850;SDS011;58475;49.662;9.636;2023-08-06T00:29:54;5.75;;;2.65;;
70850;SDS011;58475;49.662;9.636;2023-08-06T00:32:21;6.20;;;2.50;;
70850;SDS011;58475;49.662;9.636;2023-08-06T00:34:47;6.35;;;3.22;;
70850;SDS011;58475;49.662;9.636;2023-08-06T00:37:14;6.53;;;2.80;;
70850;SDS011;58475;49.662;9.636;2023-08-06T00:39:41;6.22;;;2.80;;
70850;SDS011;58475;49.662;9.636;2023-08-06T00:42:06;5.38;;;2.72;;
70850;SDS011;58475;49.662;9.636;2023-08-06T00:44:32;5.78;;;2.80;;
70850;SDS011;58475;49.662;9.636;2023-08-06T00:46:57;6.53;;;2.60;;
70850;SDS011;58475;49.662;9.636;2023-08-06T00:49:22;5.30;;;2.60;;
70850;SDS011;58475;49.662;9.636;2023-08-06T00:51:49;5.25;;;2.60;;
70850;SDS011;58475;49.662;9.636;2023-08-06T00:54:15;4.65;;;2.50;;
70850;SDS011;58475;49.662;9.636;2023-08-06T00:56:40;5.45;;;2.80;;
70850;SDS011;58475;49.662;9.636;2023-08-06T00:59:07;6.63;;;2.40;;
70850;SDS011;58475;49.662;9.636;2023-08-06T01:01:34;5.25;;;2.58;;
70850;SDS011;58475;49.662;9.636;2023-08-06T01:03:59;6.00;;;2.60;;
70850;SDS011;58475;49.662;9.636;2023-08-06T01:06:33;5.82;;;2.42;;
70850;SDS011;58475;49.662;9.636;2023-08-06T01:14:30;5.97;;;2.50;;
70850;SDS011;58475;49.662;9.636;2023-08-06T01:16:58;5.43;;;2.40;;
70850;SDS011;58475;49.662;9.636;2023-08-06T01:19:27;5.22;;;2.53;;
70850;SDS011;58475;49.662;9.636;2023-08-06T01:21:52;6.32;;;2.85;;
70850;SDS011;58475;49.662;9.636;2023-08-06T01:24:18;6.95;;;2.70;;
70850;SDS011;58475;49.662;9.636;2023-08-06T01:27:02;7.13;;;2.72;;
70850;SDS011;58475;49.662;9.636;2023-08-06T01:29:32;4.75;;;2.50;;
70850;SDS011;58475;49.662;9.636;2023-08-06T01:32:04;5.28;;;2.60;;
70850;SDS011;58475;49.662;9.636;2023-08-06T01:34:31;5.00;;;2.50;;
70850;SDS011;58475;49.662;9.636;2023-08-06T01:36:57;4.85;;;2.60;;
70850;SDS011;58475;49.662;9.636;2023-08-06T01:39:25;4.65;;;2.28;;
70850;SDS011;58475;49.662;9.636;2023-08-06T01:41:50;5.43;;;2.58;;
70850;SDS011;58475;49.662;9.636;2023-08-06T01:44:15;5.47;;;2.45;;
70850;SDS011;58475;49.662;9.636;2023-08-06T01:46:41;10.38;;;2.75;;
70850;SDS011;58475;49.662;9.636;2023-08-06T01:49:07;5.78;;;2.55;;
70850;SDS011;58475;49.662;9.636;2023-08-06T01:51:32;6.15;;;2.58;;
70850;SDS011;58475;49.662;9.636;2023-08-06T01:53:58;5.05;;;2.40;;
70850;SDS011;58475;49.662;9.636;2023-08-06T01:56:23;5.65;;;2.60;;
70850;SDS011;58475;49.662;9.636;2023-08-06T01:58:49;4.80;;;2.50;;
70850;SDS011;58475;49.662;9.636;2023-08-06T02:01:14;5.53;;;2.80;;
70850;SDS011;58475;49.662;9.636;2023-08-06T02:03:39;5.43;;;2.80;;
70850;SDS011;58475;49.662;9.636;2023-08-06T02:06:05;6.78;;;2.70;;
70850;SDS011;58475;49.662;9.636;2023-08-06T02:08:30;4.03;;;2.22;;
70850;SDS011;58475;49.662;9.636;2023-08-06T02:10:55;7.95;;;2.75;;
70850;SDS011;58475;49.662;9.636;2023-08-06T02:13:22;8.50;;;2.75;;
70850;SDS011;58475;49.662;9.636;2023-08-06T02:15:48;4.32;;;2.35;;
70850;SDS011;58475;49.662;9.636;2023-08-06T02:18:13;4.18;;;2.40;;
70850;SDS011;58475;49.662;9.636;2023-08-06T02:20:42;4.68;;;2.35;;
70850;SDS011;58475;49.662;9.636;2023-08-06T02:23:08;4.50;;;2.35;;
70850;SDS011;58475;49.662;9.636;2023-08-06T02:25:34;6.65;;;2.67;;
70850;SDS011;58475;49.662;9.636;2023-08-06T02:27:59;4.60;;;2.45;;
70850;SDS011;58475;49.662;9.636;2023-08-06T02:30:25;6.80;;;2.78;;
70850;SDS011;58475;49.662;9.636;2023-08-06T02:32:50;5.03;;;2.67;;
70850;SDS011;58475;49.662;9.636;2023-08-06T02:35:15;6.03;;;2.63;;
70850;SDS011;58475;49.662;9.636;2023-08-06T02:37:41;5.47;;;2.65;;
70850;SDS011;58475;49.662;9.636;2023-08-06T02:40:06;5.68;;;2.50;;
70850;SDS011;58475;49.662;9.636;2023-08-06T02:42:32;4.97;;;2.53;;
70850;SDS011;58475;49.662;9.636;2023-08-06T02:44:57;3.85;;;2.25;;
70850;SDS011;58475;49.662;9.636;2023-08-06T02:47:23;4.32;;;2.20;;
70850;SDS011;58475;49.662;9.636;2023-08-06T02:49:49;5.10;;;2.40;;
70850;SDS011;58475;49.662;9.636;2023-08-06T02:52:14;4.55;;;2.25;;
70850;SDS011;58475;49.662;9.636;2023-08-06T02:54:40;4.32;;;2.65;;
70850;SDS011;58475;49.662;9.636;2023-08-06T02:57:06;4.82;;;2.50;;
70850;SDS011;58475;49.662;9.636;2023-08-06T02:59:33;5.00;;;2.58;;
70850;SDS011;58475;49.662;9.636;2023-08-06T03:04:49;4.93;;;2.38;;
70850;SDS011;58475;49.662;9.636;2023-08-06T03:07:17;4.55;;;2.20;;
70850;SDS011;58475;49.662;9.636;2023-08-06T03:09:51;7.18;;;2.60;;
70850;SDS011;58475;49.662;9.636;2023-08-06T03:12:17;4.88;;;2.35;;
70850;SDS011;58475;49.662;9.636;2023-08-06T03:14:43;4.82;;;2.33;;
70850;SDS011;58475;49.662;9.636;2023-08-06T03:17:09;5.90;;;2.50;;
70850;SDS011;58475;49.662;9.636;2023-08-06T03:19:35;5.13;;;2.30;;
70850;SDS011;58475;49.662;9.636;2023-08-06T03:22:01;4.18;;;2.30;;
70850;SDS011;58475;49.662;9.636;2023-08-06T03:24:26;4.53;;;2.30;;
70850;SDS011;58475;49.662;9.636;2023-08-06T03:26:52;4.82;;;2.45;;
70850;SDS011;58475;49.662;9.636;2023-08-06T03:29:17;7.45;;;2.60;;
70850;SDS011;58475;49.662;9.636;2023-08-06T03:31:43;5.45;;;2.40;;
70850;SDS011;58475;49.662;9.636;2023-08-06T03:34:12;3.67;;;2.00;;
70850;SDS011;58475;49.662;9.636;2023-08-06T03:36:37;5.38;;;2.72;;
70850;SDS011;58475;49.662;9.636;2023-08-06T03:39:03;4.40;;;2.35;;
70850;SDS011;58475;49.662;9.636;2023-08-06T03:41:30;4.45;;;2.28;;
70850;SDS011;58475;49.662;9.636;2023-08-06T03:43:56;3.92;;;2.33;;
70850;SDS011;58475;49.662;9.636;2023-08-06T03:46:24;4.15;;;2.20;;
70850;SDS011;58475;49.662;9.636;2023-08-06T03:48:50;4.35;;;2.33;;
70850;SDS011;58475;49.662;9.636;2023-08-06T03:51:16;6.50;;;2.70;;
70850;SDS011;58475;49.662;9.636;2023-08-06T03:53:43;5.38;;;2.17;;
70850;SDS011;58475;49.662;9.636;2023-08-06T03:56:09;4.63;;;2.50;;
70850;SDS011;58475;49.662;9.636;2023-08-06T03:58:34;6.60;;;2.20;;
70850;SDS011;58475;49.662;9.636;2023-08-06T04:01:00;4.57;;;2.60;;
70850;SDS011;58475;49.662;9.636;2023-08-06T04:03:29;5.35;;;2.28;;
70850;SDS011;58475;49.662;9.636;2023-08-06T04:05:54;4.85;;;2.60;;
70850;SDS011;58475;49.662;9.636;2023-08-06T04:08:20;4.88;;;2.78;;
70850;SDS011;58475;49.662;9.636;2023-08-06T04:10:48;5.50;;;2.35;;
70850;SDS011;58475;49.662;9.636;2023-08-06T04:13:14;5.45;;;2.63;;
70850;SDS011;58475;49.662;9.636;2023-08-06T04:15:40;4.30;;;2.40;;
70850;SDS011;58475;49.662;9.636;2023-08-06T04:18:05;4.63;;;2.63;;
70850;SDS011;58475;49.662;9.636;2023-08-06T04:20:30;5.15;;;2.58;;
70850;SDS011;58475;49.662;9.636;2023-08-06T04:22:57;6.05;;;2.67;;
70850;SDS011;58475;49.662;9.636;2023-08-06T04:25:22;6.03;;;2.60;;
70850;SDS011;58475;49.662;9.636;2023-08-06T04:27:49;6.72;;;2.55;;
70850;SDS011;58475;49.662;9.636;2023-08-06T04:30:15;5.70;;;2.55;;
70850;SDS011;58475;49.662;9.636;2023-08-06T04:32:41;5.70;;;2.42;;
70850;SDS011;58475;49.662;9.636;2023-08-06T04:35:08;5.68;;;2.40;;
70850;SDS011;58475;49.662;9.636;2023-08-06T04:37:34;4.88;;;2.60;;
70850;SDS011;58475;49.662;9.636;2023-08-06T04:40:00;5.82;;;2.50;;
70850;SDS011;58475;49.662;9.636;2023-08-06T04:42:26;5.72;;;3.00;;
70850;SDS011;58475;49.662;9.636;2023-08-06T04:44:51;4.78;;;2.60;;
70850;SDS011;58475;49.662;9.636;2023-08-06T04:47:17;6.07;;;2.80;;
70850;SDS011;58475;49.662;9.636;2023-08-06T04:49:42;4.75;;;2.30;;
70850;SDS011;58475;49.662;9.636;2023-08-06T04:52:08;5.25;;;2.35;;
70850;SDS011;58475;49.662;9.636;2023-08-06T04:54:33;4.35;;;2.35;;
70850;SDS011;58475;49.662;9.636;2023-08-06T04:56:59;6.72;;;2.90;;
70850;SDS011;58475;49.662;9.636;2023-08-06T04:59:24;5.75;;;2.17;;
70850;SDS011;58475;49.662;9.636;2023-08-06T05:01:49;6.00;;;2.53;;
70850;SDS011;58475;49.662;9.636;2023-08-06T05:04:14;5.05;;;2.80;;
70850;SDS011;58475;49.662;9.636;2023-08-06T05:06:40;5.07;;;2.53;;
70850;SDS011;58475;49.662;9.636;2023-08-06T05:09:06;6.55;;;2.67;;
70850;SDS011;58475;49.662;9.636;2023-08-06T05:11:31;6.10;;;2.80;;
70850;SDS011;58475;49.662;9.636;2023-08-06T05:13:57;5.47;;;2.50;;
70850;SDS011;58475;49.662;9.636;2023-08-06T05:16:22;5.15;;;2.60;;
70850;SDS011;58475;49.662;9.636;2023-08-06T05:18:48;4.88;;;2.38;;
70850;SDS011;58475;49.662;9.636;2023-08-06T05:21:13;5.00;;;2.65;;
70850;SDS011;58475;49.662;9.636;2023-08-06T05:23:39;4.53;;;2.55;;
70850;SDS011;58475;49.662;9.636;2023-08-06T05:26:04;5.43;;;2.72;;
70850;SDS011;58475;49.662;9.636;2023-08-06T05:28:29;4.38;;;2.30;;
70850;SDS011;58475;49.662;9.636;2023-08-06T05:30:55;4.40;;;2.50;;
70850;SDS011;58475;49.662;9.636;2023-08-06T05:33:20;4.93;;;2.47;;
70850;SDS011;58475;49.662;9.636;2023-08-06T05:35:45;5.40;;;2.28;;
70850;SDS011;58475;49.662;9.636;2023-08-06T05:38:11;7.88;;;2.30;;
70850;SDS011;58475;49.662;9.636;2023-08-06T05:40:36;6.90;;;2.75;;
70850;SDS011;58475;49.662;9.636;2023-08-06T05:43:02;4.32;;;2.20;;
70850;SDS011;58475;49.662;9.636;2023-08-06T05:45:27;6.20;;;2.00;;
70850;SDS011;58475;49.662;9.636;2023-08-06T05:47:52;5.30;;;2.00;;
70850;SDS011;58475;49.662;9.636;2023-08-06T05:50:19;3.58;;;1.80;;
70850;SDS011;58475;49.662;9.636;2023-08-06T05:52:44;4.70;;;2.15;;
70850;SDS011;58475;49.662;9.636;2023-08-06T05:55:10;6.57;;;2.10;;
70850;SDS011;58475;49.662;9.636;2023-08-06T05:57:35;4.53;;;2.20;;
70850;SDS011;58475;49.662;9.636;2023-08-06T06:00:01;5.65;;;2.10;;
70850;SDS011;58475;49.662;9.636;2023-08-06T06:02:27;6.25;;;2.00;;
70850;SDS011;58475;49.662;9.636;2023-08-06T06:04:52;6.13;;;2.15;;
70850;SDS011;58475;49.662;9.636;2023-08-06T06:07:17;4.60;;;1.85;;
70850;SDS011;58475;49.662;9.636;2023-08-06T06:09:43;5.80;;;1.95;;
70850;SDS011;58475;49.662;9.636;2023-08-06T06:12:08;3.85;;;1.73;;
70850;SDS011;58475;49.662;9.636;2023-08-06T06:14:33;5.43;;;1.73;;
70850;SDS011;58475;49.662;9.636;2023-08-06T06:16:59;6.60;;;1.80;;
70850;SDS011;58475;49.662;9.636;2023-08-06T06:19:25;4.20;;;1.48;;
70850;SDS011;58475;49.662;9.636;2023-08-06T06:21:50;3.88;;;1.80;;
70850;SDS011;58475;49.662;9.636;2023-08-06T06:24:16;4.07;;;1.73;;
70850;SDS011;58475;49.662;9.636;2023-08-06T06:26:41;4.20;;;1.80;;
70850;SDS011;58475;49.662;9.636;2023-08-06T06:29:07;3.88;;;1.70;;
70850;SDS011;58475;49.662;9.636;2023-08-06T06:31:32;4.95;;;1.85;;
70850;SDS011;58475;49.662;9.636;2023-08-06T06:33:57;4.03;;;1.83;;
70850;SDS011;58475;49.662;9.636;2023-08-06T06:36:23;2.85;;;1.60;;
70850;SDS011;58475;49.662;9.636;2023-08-06T06:38:49;4.38;;;1.63;;
70850;SDS011;58475;49.662;9.636;2023-08-06T06:41:14;3.40;;;1.77;;
70850;SDS011;58475;49.662;9.636;2023-08-06T06:43:39;3.00;;;1.70;;
70850;SDS011;58475;49.662;9.636;2023-08-06T06:46:05;2.55;;;1.63;;
70850;SDS011;58475;49.662;9.636;2023-08-06T06:48:31;2.65;;;1.60;;
70850;SDS011;58475;49.662;9.636;2023-08-06T06:50:58;2.95;;;1.52;;
70850;SDS011;58475;49.662;9.636;2023-08-06T06:53:24;2.65;;;1.50;;
70850;SDS011;58475;49.662;9.636;2023-08-06T06:55:55;3.95;;;1.50;;
70850;SDS011;58475;49.662;9.636;2023-08-06T06:58:21;3.20;;;1.50;;
70850;SDS011;58475;49.662;9.636;2023-08-06T07:00:47;2.53;;;1.50;;
70850;SDS011;58475;49.662;9.636;2023-08-06T07:03:14;2.75;;;1.30;;
70850;SDS011;58475;49.662;9.636;2023-08-06T07:05:40;3.30;;;1.30;;
70850;SDS011;58475;49.662;9.636;2023-08-06T07:08:05;3.05;;;1.58;;
70850;SDS011;58475;49.662;9.636;2023-08-06T07:10:31;2.90;;;1.70;;
70850;SDS011;58475;49.662;9.636;2023-08-06T07:12:56;4.07;;;1.77;;
70850;SDS011;58475;49.662;9.636;2023-08-06T07:15:22;2.38;;;1.38;;
70850;SDS011;58475;49.662;9.636;2023-08-06T07:17:47;3.00;;;1.52;;
70850;SDS011;58475;49.662;9.636;2023-08-06T07:20:13;2.42;;;1.40;;
70850;SDS011;58475;49.662;9.636;2023-08-06T07:22:39;3.58;;;1.48;;
70850;SDS011;58475;49.662;9.636;2023-08-06T07:25:04;6.25;;;1.75;;
70850;SDS011;58475;49.662;9.636;2023-08-06T07:27:30;2.88;;;1.25;;
70850;SDS011;58475;49.662;9.636;2023-08-06T07:29:55;1.90;;;1.23;;
70850;SDS011;58475;49.662;9.636;2023-08-06T07:32:21;2.35;;;1.25;;
70850;SDS011;58475;49.662;9.636;2023-08-06T07:34:46;3.70;;;1.33;;
70850;SDS011;58475;49.662;9.636;2023-08-06T07:37:11;2.95;;;1.40;;
70850;SDS011;58475;49.662;9.636;2023-08-06T07:39:37;1.52;;;1.13;;
70850;SDS011;58475;49.662;9.636;2023-08-06T07:42:04;2.72;;;1.20;;
70850;SDS011;58475;49.662;9.636;2023-08-06T07:44:31;1.80;;;1.20;;
70850;SDS011;58475;49.662;9.636;2023-08-06T07:46:56;1.20;;;1.10;;
70850;SDS011;58475;49.662;9.636;2023-08-06T07:49:21;1.33;;;1.02;;
70850;SDS011;58475;49.662;9.636;2023-08-06T07:51:47;1.70;;;1.13;;
70850;SDS011;58475;49.662;9.636;2023-08-06T07:54:12;1.42;;;1.10;;
70850;SDS011;58475;49.662;9.636;2023-08-06T07:56:38;1.83;;;1.00;;
70850;SDS011;58475;49.662;9.636;2023-08-06T07:59:03;1.35;;;1.20;;
70850;SDS011;58475;49.662;9.636;2023-08-06T08:01:28;2.40;;;1.20;;
70850;SDS011;58475;49.662;9.636;2023-08-06T08:03:54;1.20;;;1.10;;
70850;SDS011;58475;49.662;9.636;2023-08-06T08:06:19;1.92;;;1.15;;
70850;SDS011;58475;49.662;9.636;2023-08-06T08:08:44;1.30;;;1.00;;
70850;SDS011;58475;49.662;9.636;2023-08-06T08:11:10;2.55;;;1.00;;
70850;SDS011;58475;49.662;9.636;2023-08-06T08:13:35;1.83;;;1.10;;
70850;SDS011;58475;49.662;9.636;2023-08-06T08:16:01;1.88;;;1.00;;
70850;SDS011;58475;49.662;9.636;2023-08-06T08:18:26;1.10;;;1.00;;
70850;SDS011;58475;49.662;9.636;2023-08-06T08:20:52;1.35;;;0.93;;
70850;SDS011;58475;49.662;9.636;2023-08-06T08:23:17;0.90;;;0.90;;
70850;SDS011;58475;49.662;9.636;2023-08-06T08:25:43;2.05;;;0.98;;
70850;SDS011;58475;49.662;9.636;2023-08-06T08:28:08;1.20;;;1.10;;
70850;SDS011;58475;49.662;9.636;2023-08-06T08:30:33;1.85;;;1.10;;
70850;SDS011;58475;49.662;9.636;2023-08-06T08:32:59;2.08;;;1.10;;
70850;SDS011;58475;49.662;9.636;2023-08-06T08:35:24;1.00;;;0.90;;
70850;SDS011;58475;49.662;9.636;2023-08-06T08:37:50;1.70;;;0.93;;
70850;SDS011;58475;49.662;9.636;2023-08-06T08:40:16;2.08;;;1.10;;
70850;SDS011;58475;49.662;9.636;2023-08-06T08:42:42;4.65;;;1.30;;
70850;SDS011;58475;49.662;9.636;2023-08-06T08:45:11;1.00;;;1.00;;
70850;SDS011;58475;49.662;9.636;2023-08-06T08:47:39;1.70;;;0.93;;
70850;SDS011;58475;49.662;9.636;2023-08-06T08:50:07;1.55;;;0.90;;
70850;SDS011;58475;49.662;9.636;2023-08-06T08:52:35;1.45;;;1.00;;
70850;SDS011;58475;49.662;9.636;2023-08-06T08:55:01;0.98;;;0.85;;
70850;SDS011;58475;49.662;9.636;2023-08-06T08:57:27;2.42;;;0.90;;
70850;SDS011;58475;49.662;9.636;2023-08-06T08:59:53;1.67;;;1.00;;
70850;SDS011;58475;49.662;9.636;2023-08-06T09:02:18;0.93;;;0.93;;
70850;SDS011;58475;49.662;9.636;2023-08-06T09:04:46;0.80;;;0.80;;
70850;SDS011;58475;49.662;9.636;2023-08-06T09:07:13;1.05;;;0.80;;
70850;SDS011;58475;49.662;9.636;2023-08-06T09:09:43;1.23;;;1.10;;
70850;SDS011;58475;49.662;9.636;2023-08-06T09:12:12;0.80;;;0.80;;
70850;SDS011;58475;49.662;9.636;2023-08-06T09:14:39;2.75;;;1.40;;
70850;SDS011;58475;49.662;9.636;2023-08-06T09:17:05;0.75;;;0.70;;
70850;SDS011;58475;49.662;9.636;2023-08-06T09:19:31;0.70;;;0.70;;
70850;SDS011;58475;49.662;9.636;2023-08-06T09:21:56;1.05;;;0.80;;
70850;SDS011;58475;49.662;9.636;2023-08-06T09:24:22;0.85;;;0.80;;
70850;SDS011;58475;49.662;9.636;2023-08-06T09:26:48;0.70;;;0.70;;
70850;SDS011;58475;49.662;9.636;2023-08-06T09:29:13;4.38;;;2.50;;
70850;SDS011;58475;49.662;9.636;2023-08-06T09:34:15;1.08;;;0.90;;
70850;SDS011;58475;49.662;9.636;2023-08-06T09:36:42;1.15;;;1.00;;
70850;SDS011;58475;49.662;9.636;2023-08-06T09:39:15;0.80;;;0.80;;
70850;SDS011;58475;49.662;9.636;2023-08-06T09:41:41;1.30;;;0.80;;
70850;SDS011;58475;49.662;9.636;2023-08-06T09:44:17;0.75;;;0.75;;
70850;SDS011;58475;49.662;9.636;2023-08-06T09:46:50;0.60;;;0.60;;
70850;SDS011;58475;49.662;9.636;2023-08-06T09:49:17;1.60;;;0.90;;
70850;SDS011;58475;49.662;9.636;2023-08-06T09:51:44;0.82;;;0.80;;
70850;SDS011;58475;49.662;9.636;2023-08-06T09:54:13;2.50;;;1.00;;
70850;SDS011;58475;49.662;9.636;2023-08-06T09:56:40;1.10;;;0.85;;
70850;SDS011;58475;49.662;9.636;2023-08-06T09:59:07;0.95;;;0.77;;
70850;SDS011;58475;49.662;9.636;2023-08-06T10:01:34;0.70;;;0.70;;
70850;SDS011;58475;49.662;9.636;2023-08-06T10:04:00;1.02;;;0.90;;
70850;SDS011;58475;49.662;9.636;2023-08-06T10:06:28;1.02;;;0.82;;
70850;SDS011;58475;49.662;9.636;2023-08-06T10:08:53;1.10;;;1.00;;
70850;SDS011;58475;49.662;9.636;2023-08-06T10:11:19;0.80;;;0.80;;
70850;SDS011;58475;49.662;9.636;2023-08-06T10:13:50;1.10;;;1.00;;
70850;SDS011;58475;49.662;9.636;2023-08-06T10:16:20;2.15;;;1.10;;
70850;SDS011;58475;49.662;9.636;2023-08-06T10:18:47;1.15;;;1.05;;
70850;SDS011;58475;49.662;9.636;2023-08-06T10:21:14;0.70;;;0.70;;
70850;SDS011;58475;49.662;9.636;2023-08-06T10:23:41;1.58;;;0.93;;
70850;SDS011;58475;49.662;9.636;2023-08-06T10:26:06;0.95;;;0.73;;
70850;SDS011;58475;49.662;9.636;2023-08-06T10:28:38;0.68;;;0.68;;
70850;SDS011;58475;49.662;9.636;2023-08-06T10:31:04;0.70;;;0.70;;
70850;SDS011;58475;49.662;9.636;2023-08-06T10:33:39;2.08;;;0.80;;
70850;SDS011;58475;49.662;9.636;2023-08-06T10:36:09;0.70;;;0.63;;
70850;SDS011;58475;49.662;9.636;2023-08-06T10:38:35;0.80;;;0.80;;
70850;SDS011;58475;49.662;9.636;2023-08-06T10:41:08;0.80;;;0.80;;
70850;SDS011;58475;49.662;9.636;2023-08-06T10:43:57;0.70;;;0.68;;
70850;SDS011;58475;49.662;9.636;2023-08-06T10:46:32;0.93;;;0.85;;
70850;SDS011;58475;49.662;9.636;2023-08-06T10:48:57;0.77;;;0.77;;
70850;SDS011;58475;49.662;9.636;2023-08-06T10:51:23;0.73;;;0.73;;
70850;SDS011;58475;49.662;9.636;2023-08-06T10:53:49;0.80;;;0.80;;
70850;SDS011;58475;49.662;9.636;2023-08-06T10:56:16;1.15;;;0.68;;
70850;SDS011;58475;49.662;9.636;2023-08-06T10:58:42;0.75;;;0.75;;
70850;SDS011;58475;49.662;9.636;2023-08-06T11:01:09;0.82;;;0.82;;
70850;SDS011;58475;49.662;9.636;2023-08-06T11:03:35;0.93;;;0.80;;
70850;SDS011;58475;49.662;9.636;2023-08-06T11:06:01;0.80;;;0.63;;
70850;SDS011;58475;49.662;9.636;2023-08-06T11:08:28;1.42;;;0.60;;
70850;SDS011;58475;49.662;9.636;2023-08-06T11:10:55;0.80;;;0.60;;
70850;SDS011;58475;49.662;9.636;2023-08-06T11:13:33;0.60;;;0.60;;
70850;SDS011;58475;49.662;9.636;2023-08-06T11:15:58;0.70;;;0.60;;
70850;SDS011;58475;49.662;9.636;2023-08-06T11:18:24;0.63;;;0.63;;
70850;SDS011;58475;49.662;9.636;2023-08-06T11:20:49;0.70;;;0.70;;
70850;SDS011;58475;49.662;9.636;2023-08-06T11:23:14;0.68;;;0.68;;
70850;SDS011;58475;49.662;9.636;2023-08-06T11:25:46;0.60;;;0.60;;
70850;SDS011;58475;49.662;9.636;2023-08-06T11:28:11;0.80;;;0.80;;
70850;SDS011;58475;49.662;9.636;2023-08-06T11:30:37;0.70;;;0.70;;
70850;SDS011;58475;49.662;9.636;2023-08-06T11:33:03;0.60;;;0.60;;
70850;SDS011;58475;49.662;9.636;2023-08-06T11:35:33;0.68;;;0.68;;
70850;SDS011;58475;49.662;9.636;2023-08-06T11:38:00;0.75;;;0.65;;
70850;SDS011;58475;49.662;9.636;2023-08-06T11:40:25;0.73;;;0.63;;
70850;SDS011;58475;49.662;9.636;2023-08-06T11:42:51;1.60;;;1.10;;
70850;SDS011;58475;49.662;9.636;2023-08-06T11:45:16;1.95;;;0.68;;
70850;SDS011;58475;49.662;9.636;2023-08-06T11:47:41;3.38;;;0.95;;
70850;SDS011;58475;49.662;9.636;2023-08-06T11:50:21;1.80;;;0.60;;
70850;SDS011;58475;49.662;9.636;2023-08-06T11:52:57;0.60;;;0.60;;
70850;SDS011;58475;49.662;9.636;2023-08-06T11:55:24;0.93;;;0.70;;
70850;SDS011;58475;49.662;9.636;2023-08-06T11:57:50;0.60;;;0.60;;
70850;SDS011;58475;49.662;9.636;2023-08-06T12:00:16;0.70;;;0.70;;
70850;SDS011;58475;49.662;9.636;2023-08-06T12:02:43;0.80;;;0.80;;
70850;SDS011;58475;49.662;9.636;2023-08-06T12:05:13;1.02;;;0.82;;
70850;SDS011;58475;49.662;9.636;2023-08-06T12:07:52;0.70;;;0.70;;
70850;SDS011;58475;49.662;9.636;2023-08-06T12:10:20;1.65;;;0.70;;
70850;SDS011;58475;49.662;9.636;2023-08-06T12:12:46;0.80;;;0.80;;
70850;SDS011;58475;49.662;9.636;2023-08-06T12:15:12;0.60;;;0.60;;
70850;SDS011;58475;49.662;9.636;2023-08-06T12:17:38;0.70;;;0.70;;
70850;SDS011;58475;49.662;9.636;2023-08-06T12:20:04;0.85;;;0.70;;
70850;SDS011;58475;49.662;9.636;2023-08-06T12:22:31;0.60;;;0.60;;
70850;SDS011;58475;49.662;9.636;2023-08-06T12:25:00;0.90;;;0.60;;
70850;SDS011;58475;49.662;9.636;2023-08-06T12:27:27;0.50;;;0.50;;
70850;SDS011;58475;49.662;9.636;2023-08-06T12:29:53;1.30;;;0.50;;
70850;SDS011;58475;49.662;9.636;2023-08-06T12:32:19;1.52;;;0.55;;
70850;SDS011;58475;49.662;9.636;2023-08-06T12:34:44;0.57;;;0.50;;
70850;SDS011;58475;49.662;9.636;2023-08-06T12:37:10;0.47;;;0.47;;
70850;SDS011;58475;49.662;9.636;2023-08-06T12:39:35;0.52;;;0.52;;
70850;SDS011;58475;49.662;9.636;2023-08-06T12:42:01;0.40;;;0.40;;
70850;SDS011;58475;49.662;9.636;2023-08-06T12:44:28;1.20;;;0.70;;
70850;SDS011;58475;49.662;9.636;2023-08-06T12:46:53;0.88;;;0.50;;
70850;SDS011;58475;49.662;9.636;2023-08-06T12:49:19;0.52;;;0.50;;
70850;SDS011;58475;49.662;9.636;2023-08-06T12:51:49;1.05;;;0.63;;
70850;SDS011;58475;49.662;9.636;2023-08-06T12:54:19;0.60;;;0.60;;
70850;SDS011;58475;49.662;9.636;2023-08-06T12:56:45;0.77;;;0.70;;
70850;SDS011;58475;49.662;9.636;2023-08-06T12:59:13;0.60;;;0.60;;
70850;SDS011;58475;49.662;9.636;2023-08-06T13:01:39;0.70;;;0.70;;
70850;SDS011;58475;49.662;9.636;2023-08-06T13:04:04;0.45;;;0.45;;
70850;SDS011;58475;49.662;9.636;2023-08-06T13:06:30;0.80;;;0.80;;
70850;SDS011;58475;49.662;9.636;2023-08-06T13:08:56;0.70;;;0.70;;
70850;SDS011;58475;49.662;9.636;2023-08-06T13:11:22;1.00;;;0.70;;
70850;SDS011;58475;49.662;9.636;2023-08-06T13:13:47;1.80;;;0.65;;
70850;SDS011;58475;49.662;9.636;2023-08-06T13:16:13;0.80;;;0.70;;
70850;SDS011;58475;49.662;9.636;2023-08-06T13:18:38;0.70;;;0.60;;
70850;SDS011;58475;49.662;9.636;2023-08-06T13:21:03;0.77;;;0.70;;
70850;SDS011;58475;49.662;9.636;2023-08-06T13:23:29;0.77;;;0.77;;
70850;SDS011;58475;49.662;9.636;2023-08-06T13:25:54;0.90;;;0.70;;
70850;SDS011;58475;49.662;9.636;2023-08-06T13:28:20;5.97;;;0.80;;
70850;SDS011;58475;49.662;9.636;2023-08-06T13:30:46;1.40;;;0.80;;
70850;SDS011;58475;49.662;9.636;2023-08-06T13:33:11;0.80;;;0.80;;
70850;SDS011;58475;49.662;9.636;2023-08-06T13:35:37;1.20;;;0.85;;
70850;SDS011;58475;49.662;9.636;2023-08-06T13:38:03;0.82;;;0.82;;
70850;SDS011;58475;49.662;9.636;2023-08-06T13:40:28;1.42;;;1.00;;
70850;SDS011;58475;49.662;9.636;2023-08-06T13:42:55;1.30;;;0.93;;
70850;SDS011;58475;49.662;9.636;2023-08-06T13:45:20;0.95;;;0.60;;
70850;SDS011;58475;49.662;9.636;2023-08-06T13:47:46;1.45;;;0.98;;
70850;SDS011;58475;49.662;9.636;2023-08-06T13:50:11;1.10;;;1.00;;
70850;SDS011;58475;49.662;9.636;2023-08-06T13:52:37;1.58;;;1.00;;
70850;SDS011;58475;49.662;9.636;2023-08-06T13:55:02;3.22;;;1.20;;
70850;SDS011;58475;49.662;9.636;2023-08-06T13:57:29;1.95;;;0.93;;
70850;SDS011;58475;49.662;9.636;2023-08-06T13:59:54;1.52;;;0.93;;
70850;SDS011;58475;49.662;9.636;2023-08-06T14:02:20;1.27;;;0.90;;
70850;SDS011;58475;49.662;9.636;2023-08-06T14:04:45;2.50;;;1.10;;
70850;SDS011;58475;49.662;9.636;2023-08-06T14:07:10;1.85;;;1.10;;
70850;SDS011;58475;49.662;9.636;2023-08-06T14:09:36;1.20;;;1.00;;
70850;SDS011;58475;49.662;9.636;2023-08-06T14:12:01;1.35;;;1.00;;
70850;SDS011;58475;49.662;9.636;2023-08-06T14:14:28;1.20;;;1.10;;
70850;SDS011;58475;49.662;9.636;2023-08-06T14:16:53;2.05;;;1.00;;
70850;SDS011;58475;49.662;9.636;2023-08-06T14:19:19;1.08;;;0.82;;
70850;SDS011;58475;49.662;9.636;2023-08-06T14:21:45;1.15;;;0.95;;
70850;SDS011;58475;49.662;9.636;2023-08-06T14:24:11;2.03;;;1.10;;
70850;SDS011;58475;49.662;9.636;2023-08-06T14:26:36;3.10;;;1.05;;
70850;SDS011;58475;49.662;9.636;2023-08-06T14:29:02;0.85;;;0.80;;
70850;SDS011;58475;49.662;9.636;2023-08-06T14:31:28;2.05;;;1.10;;
70850;SDS011;58475;49.662;9.636;2023-08-06T14:33:53;2.92;;;0.95;;
70850;SDS011;58475;49.662;9.636;2023-08-06T14:36:19;0.95;;;0.88;;
70850;SDS011;58475;49.662;9.636;2023-08-06T14:38:44;0.80;;;0.80;;
70850;SDS011;58475;49.662;9.636;2023-08-06T14:41:10;1.45;;;0.88;;
70850;SDS011;58475;49.662;9.636;2023-08-06T14:43:36;2.50;;;1.08;;
70850;SDS011;58475;49.662;9.636;2023-08-06T14:46:01;1.25;;;0.90;;
70850;SDS011;58475;49.662;9.636;2023-08-06T14:48:26;0.75;;;0.75;;
70850;SDS011;58475;49.662;9.636;2023-08-06T14:50:52;0.82;;;0.82;;
70850;SDS011;58475;49.662;9.636;2023-08-06T14:53:17;1.35;;;0.90;;